Miami, Florida
Traffic Map
Current Weather Conditions
Miami, Florida
Overcast Thunderstorm
Overcast
70°
Feels Like: 70°
Wind Chill: 70° Ceiling: 2200
Heat Index: 70° Visibility: 2mi
Dew Point: 65° Wind: 14mph
Humidity: 84% Direction: 60° (ENE)
Pressure: 30.24in Gusts: 28mph
Raw Report DataKMIA 240115Z 06012G24KT 2SM +TSRA BR SCT015 BKN022CB OVC040 21/18 A3024 RMK AO2 LTG DSNT N AND E PRESRR OCNL LTGIC OHD TS OHD MOV SW P0048 T02110183 $
Traffic Incident Summary
Active as of:
Severity:
Category:
InformationThere was an issue retrieving the traffic information for this location. Please try a different location or try again shortly.
Advertisements
Track Severe Weather on mobile